sensor_id;sensor_type;location;lat;lon;timestamp;P1;durP1;ratioP1;P2;durP2;ratioP2
769;SDS011;368;48.698;9.116;2023-02-27T00:01:54;2.65;;;2.45;;
769;SDS011;368;48.698;9.116;2023-02-27T00:04:21;2.10;;;1.85;;
769;SDS011;368;48.698;9.116;2023-02-27T00:06:47;2.30;;;2.10;;
769;SDS011;368;48.698;9.116;2023-02-27T00:09:14;2.00;;;1.90;;
769;SDS011;368;48.698;9.116;2023-02-27T00:11:41;2.20;;;2.00;;
769;SDS011;368;48.698;9.116;2023-02-27T00:14:09;2.25;;;2.00;;
769;SDS011;368;48.698;9.116;2023-02-27T00:16:36;2.97;;;2.15;;
769;SDS011;368;48.698;9.116;2023-02-27T00:19:02;2.67;;;2.35;;
769;SDS011;368;48.698;9.116;2023-02-27T00:21:29;3.35;;;2.85;;
769;SDS011;368;48.698;9.116;2023-02-27T00:23:56;5.25;;;3.30;;
769;SDS011;368;48.698;9.116;2023-02-27T00:26:23;3.20;;;2.15;;
769;SDS011;368;48.698;9.116;2023-02-27T00:28:50;5.10;;;2.70;;
769;SDS011;368;48.698;9.116;2023-02-27T00:31:18;2.50;;;2.00;;
769;SDS011;368;48.698;9.116;2023-02-27T00:33:45;2.67;;;2.45;;
769;SDS011;368;48.698;9.116;2023-02-27T00:36:12;2.50;;;2.30;;
769;SDS011;368;48.698;9.116;2023-02-27T00:38:39;3.42;;;2.45;;
769;SDS011;368;48.698;9.116;2023-02-27T00:41:06;2.97;;;2.22;;
769;SDS011;368;48.698;9.116;2023-02-27T00:43:33;3.72;;;2.03;;
769;SDS011;368;48.698;9.116;2023-02-27T00:45:59;3.42;;;2.25;;
769;SDS011;368;48.698;9.116;2023-02-27T00:48:27;3.03;;;2.20;;
769;SDS011;368;48.698;9.116;2023-02-27T00:50:54;2.65;;;2.28;;
769;SDS011;368;48.698;9.116;2023-02-27T00:53:21;2.28;;;2.08;;
769;SDS011;368;48.698;9.116;2023-02-27T00:55:48;2.60;;;2.40;;
769;SDS011;368;48.698;9.116;2023-02-27T00:58:15;2.85;;;2.10;;
769;SDS011;368;48.698;9.116;2023-02-27T01:00:42;2.38;;;2.10;;
769;SDS011;368;48.698;9.116;2023-02-27T01:03:09;2.10;;;1.90;;
769;SDS011;368;48.698;9.116;2023-02-27T01:05:37;1.80;;;1.70;;
769;SDS011;368;48.698;9.116;2023-02-27T01:08:03;2.58;;;2.38;;
769;SDS011;368;48.698;9.116;2023-02-27T01:10:30;2.90;;;2.63;;
769;SDS011;368;48.698;9.116;2023-02-27T01:12:57;2.50;;;2.33;;
769;SDS011;368;48.698;9.116;2023-02-27T01:15:24;2.70;;;2.45;;
769;SDS011;368;48.698;9.116;2023-02-27T01:17:51;4.45;;;2.10;;
769;SDS011;368;48.698;9.116;2023-02-27T01:20:17;2.80;;;2.60;;
769;SDS011;368;48.698;9.116;2023-02-27T01:22:46;2.50;;;2.30;;
769;SDS011;368;48.698;9.116;2023-02-27T01:25:12;2.33;;;2.22;;
769;SDS011;368;48.698;9.116;2023-02-27T01:27:39;2.30;;;2.10;;
769;SDS011;368;48.698;9.116;2023-02-27T01:30:07;2.95;;;2.75;;
769;SDS011;368;48.698;9.116;2023-02-27T01:32:36;2.40;;;2.20;;
769;SDS011;368;48.698;9.116;2023-02-27T01:35:03;2.70;;;2.20;;
769;SDS011;368;48.698;9.116;2023-02-27T01:37:31;2.70;;;2.50;;
769;SDS011;368;48.698;9.116;2023-02-27T01:39:59;2.42;;;2.15;;
769;SDS011;368;48.698;9.116;2023-02-27T01:42:27;2.50;;;2.30;;
769;SDS011;368;48.698;9.116;2023-02-27T01:45:17;3.72;;;2.30;;
769;SDS011;368;48.698;9.116;2023-02-27T01:47:53;4.13;;;2.55;;
769;SDS011;368;48.698;9.116;2023-02-27T01:50:24;2.20;;;2.10;;
769;SDS011;368;48.698;9.116;2023-02-27T01:52:52;3.10;;;2.35;;
769;SDS011;368;48.698;9.116;2023-02-27T01:55:28;3.35;;;3.05;;
769;SDS011;368;48.698;9.116;2023-02-27T01:57:57;3.88;;;2.78;;
769;SDS011;368;48.698;9.116;2023-02-27T02:00:25;3.05;;;2.85;;
769;SDS011;368;48.698;9.116;2023-02-27T02:02:53;3.13;;;2.92;;
769;SDS011;368;48.698;9.116;2023-02-27T02:05:25;2.97;;;2.72;;
769;SDS011;368;48.698;9.116;2023-02-27T02:07:54;3.95;;;2.60;;
769;SDS011;368;48.698;9.116;2023-02-27T02:10:21;3.75;;;2.97;;
769;SDS011;368;48.698;9.116;2023-02-27T02:12:51;3.60;;;3.13;;
769;SDS011;368;48.698;9.116;2023-02-27T02:15:19;3.45;;;2.70;;
769;SDS011;368;48.698;9.116;2023-02-27T02:17:53;3.90;;;3.15;;
769;SDS011;368;48.698;9.116;2023-02-27T02:23:36;4.55;;;3.30;;
769;SDS011;368;48.698;9.116;2023-02-27T02:26:34;3.10;;;2.90;;
769;SDS011;368;48.698;9.116;2023-02-27T02:38:42;4.05;;;2.95;;
769;SDS011;368;48.698;9.116;2023-02-27T02:41:33;4.82;;;3.25;;
769;SDS011;368;48.698;9.116;2023-02-27T02:44:13;3.05;;;2.63;;
769;SDS011;368;48.698;9.116;2023-02-27T02:46:50;4.30;;;3.90;;
769;SDS011;368;48.698;9.116;2023-02-27T02:49:28;3.70;;;2.95;;
769;SDS011;368;48.698;9.116;2023-02-27T02:52:02;3.30;;;2.95;;
769;SDS011;368;48.698;9.116;2023-02-27T02:54:37;4.22;;;3.35;;
769;SDS011;368;48.698;9.116;2023-02-27T02:57:09;3.60;;;3.30;;
769;SDS011;368;48.698;9.116;2023-02-27T02:59:41;3.15;;;2.95;;
769;SDS011;368;48.698;9.116;2023-02-27T03:02:14;3.90;;;3.65;;
769;SDS011;368;48.698;9.116;2023-02-27T03:04:45;3.50;;;3.20;;
769;SDS011;368;48.698;9.116;2023-02-27T03:07:18;4.07;;;3.03;;
769;SDS011;368;48.698;9.116;2023-02-27T03:09:51;6.63;;;3.78;;
769;SDS011;368;48.698;9.116;2023-02-27T03:12:21;5.28;;;3.85;;
769;SDS011;368;48.698;9.116;2023-02-27T03:14:51;6.22;;;3.70;;
769;SDS011;368;48.698;9.116;2023-02-27T03:17:26;3.70;;;3.40;;
769;SDS011;368;48.698;9.116;2023-02-27T03:20:00;3.47;;;3.17;;
769;SDS011;368;48.698;9.116;2023-02-27T03:22:33;4.32;;;3.47;;
769;SDS011;368;48.698;9.116;2023-02-27T03:25:04;3.90;;;3.50;;
769;SDS011;368;48.698;9.116;2023-02-27T03:27:34;4.28;;;3.97;;
769;SDS011;368;48.698;9.116;2023-02-27T03:30:06;3.70;;;3.40;;
769;SDS011;368;48.698;9.116;2023-02-27T03:32:37;4.70;;;4.30;;
769;SDS011;368;48.698;9.116;2023-02-27T03:35:07;4.65;;;4.25;;
769;SDS011;368;48.698;9.116;2023-02-27T03:37:38;4.80;;;4.20;;
769;SDS011;368;48.698;9.116;2023-02-27T03:40:15;4.97;;;4.57;;
769;SDS011;368;48.698;9.116;2023-02-27T03:42:48;4.80;;;3.63;;
769;SDS011;368;48.698;9.116;2023-02-27T03:45:23;5.88;;;4.45;;
769;SDS011;368;48.698;9.116;2023-02-27T03:47:57;4.03;;;3.72;;
769;SDS011;368;48.698;9.116;2023-02-27T03:50:24;4.45;;;4.03;;
769;SDS011;368;48.698;9.116;2023-02-27T03:52:51;5.43;;;3.85;;
769;SDS011;368;48.698;9.116;2023-02-27T03:55:20;4.38;;;4.00;;
769;SDS011;368;48.698;9.116;2023-02-27T03:57:50;4.60;;;4.25;;
769;SDS011;368;48.698;9.116;2023-02-27T04:00:18;4.78;;;4.40;;
769;SDS011;368;48.698;9.116;2023-02-27T04:02:47;5.30;;;3.53;;
769;SDS011;368;48.698;9.116;2023-02-27T04:05:15;6.38;;;3.72;;
769;SDS011;368;48.698;9.116;2023-02-27T04:07:45;5.28;;;3.80;;
769;SDS011;368;48.698;9.116;2023-02-27T04:13:25;3.75;;;3.40;;
769;SDS011;368;48.698;9.116;2023-02-27T04:16:18;5.50;;;4.72;;
769;SDS011;368;48.698;9.116;2023-02-27T04:18:59;4.75;;;4.35;;
769;SDS011;368;48.698;9.116;2023-02-27T04:21:42;4.68;;;4.28;;
769;SDS011;368;48.698;9.116;2023-02-27T04:24:24;4.97;;;4.57;;
769;SDS011;368;48.698;9.116;2023-02-27T04:27:02;5.63;;;4.60;;
769;SDS011;368;48.698;9.116;2023-02-27T04:29:36;5.20;;;4.05;;
769;SDS011;368;48.698;9.116;2023-02-27T04:32:14;5.72;;;4.15;;
769;SDS011;368;48.698;9.116;2023-02-27T04:34:46;4.28;;;3.90;;
769;SDS011;368;48.698;9.116;2023-02-27T04:37:20;5.22;;;4.25;;
769;SDS011;368;48.698;9.116;2023-02-27T04:39:50;4.47;;;4.07;;
769;SDS011;368;48.698;9.116;2023-02-27T04:42:22;4.75;;;3.67;;
769;SDS011;368;48.698;9.116;2023-02-27T04:44:53;4.05;;;3.75;;
769;SDS011;368;48.698;9.116;2023-02-27T04:47:24;4.90;;;4.03;;
769;SDS011;368;48.698;9.116;2023-02-27T04:49:54;4.45;;;4.05;;
769;SDS011;368;48.698;9.116;2023-02-27T04:52:26;4.10;;;3.75;;
769;SDS011;368;48.698;9.116;2023-02-27T04:54:58;4.10;;;3.70;;
769;SDS011;368;48.698;9.116;2023-02-27T04:57:33;4.55;;;3.85;;
769;SDS011;368;48.698;9.116;2023-02-27T05:00:03;5.38;;;4.25;;
769;SDS011;368;48.698;9.116;2023-02-27T05:02:35;5.60;;;4.13;;
769;SDS011;368;48.698;9.116;2023-02-27T05:05:07;9.32;;;3.88;;
769;SDS011;368;48.698;9.116;2023-02-27T05:07:38;5.50;;;4.22;;
769;SDS011;368;48.698;9.116;2023-02-27T05:10:11;4.43;;;4.05;;
769;SDS011;368;48.698;9.116;2023-02-27T05:12:46;5.72;;;4.32;;
769;SDS011;368;48.698;9.116;2023-02-27T05:15:17;4.75;;;4.05;;
769;SDS011;368;48.698;9.116;2023-02-27T05:17:54;5.15;;;4.65;;
769;SDS011;368;48.698;9.116;2023-02-27T05:20:26;5.63;;;4.35;;
769;SDS011;368;48.698;9.116;2023-02-27T05:23:01;8.05;;;3.80;;
769;SDS011;368;48.698;9.116;2023-02-27T05:25:40;4.53;;;4.03;;
769;SDS011;368;48.698;9.116;2023-02-27T05:28:14;5.97;;;3.95;;
769;SDS011;368;48.698;9.116;2023-02-27T05:30:46;6.90;;;4.30;;
769;SDS011;368;48.698;9.116;2023-02-27T05:33:17;4.50;;;4.10;;
769;SDS011;368;48.698;9.116;2023-02-27T05:35:49;6.95;;;4.68;;
769;SDS011;368;48.698;9.116;2023-02-27T05:38:21;5.97;;;5.40;;
769;SDS011;368;48.698;9.116;2023-02-27T05:40:54;8.05;;;4.15;;
769;SDS011;368;48.698;9.116;2023-02-27T05:43:27;5.22;;;4.82;;
769;SDS011;368;48.698;9.116;2023-02-27T05:45:58;4.57;;;4.18;;
769;SDS011;368;48.698;9.116;2023-02-27T05:48:30;4.97;;;4.50;;
769;SDS011;368;48.698;9.116;2023-02-27T05:51:00;5.35;;;4.80;;
769;SDS011;368;48.698;9.116;2023-02-27T05:53:30;4.55;;;4.15;;
769;SDS011;368;48.698;9.116;2023-02-27T05:56:03;4.40;;;4.00;;
769;SDS011;368;48.698;9.116;2023-02-27T05:58:35;4.45;;;4.05;;
769;SDS011;368;48.698;9.116;2023-02-27T06:01:06;6.53;;;4.70;;
769;SDS011;368;48.698;9.116;2023-02-27T06:03:35;6.20;;;4.28;;
769;SDS011;368;48.698;9.116;2023-02-27T06:06:04;6.43;;;4.50;;
769;SDS011;368;48.698;9.116;2023-02-27T06:08:33;4.60;;;4.20;;
769;SDS011;368;48.698;9.116;2023-02-27T06:11:00;5.28;;;4.75;;
769;SDS011;368;48.698;9.116;2023-02-27T06:13:27;5.30;;;4.63;;
769;SDS011;368;48.698;9.116;2023-02-27T06:15:55;6.30;;;4.65;;
769;SDS011;368;48.698;9.116;2023-02-27T06:18:22;4.60;;;4.20;;
769;SDS011;368;48.698;9.116;2023-02-27T06:20:49;5.28;;;4.88;;
769;SDS011;368;48.698;9.116;2023-02-27T06:23:16;5.45;;;4.72;;
769;SDS011;368;48.698;9.116;2023-02-27T06:25:43;4.90;;;4.50;;
769;SDS011;368;48.698;9.116;2023-02-27T06:28:11;4.93;;;4.53;;
769;SDS011;368;48.698;9.116;2023-02-27T06:30:37;4.75;;;4.30;;
769;SDS011;368;48.698;9.116;2023-02-27T06:33:06;4.72;;;4.25;;
769;SDS011;368;48.698;9.116;2023-02-27T06:35:33;6.25;;;4.60;;
769;SDS011;368;48.698;9.116;2023-02-27T06:38:00;6.47;;;4.75;;
769;SDS011;368;48.698;9.116;2023-02-27T06:40:27;4.85;;;4.45;;
769;SDS011;368;48.698;9.116;2023-02-27T06:42:53;5.75;;;4.63;;
769;SDS011;368;48.698;9.116;2023-02-27T06:45:20;6.65;;;5.00;;
769;SDS011;368;48.698;9.116;2023-02-27T06:47:51;5.57;;;4.80;;
769;SDS011;368;48.698;9.116;2023-02-27T06:50:19;5.30;;;4.75;;
769;SDS011;368;48.698;9.116;2023-02-27T06:52:46;5.78;;;4.35;;
769;SDS011;368;48.698;9.116;2023-02-27T06:55:13;6.85;;;5.32;;
769;SDS011;368;48.698;9.116;2023-02-27T06:57:45;7.90;;;5.90;;
769;SDS011;368;48.698;9.116;2023-02-27T07:00:12;6.18;;;5.05;;
769;SDS011;368;48.698;9.116;2023-02-27T07:02:40;7.68;;;5.90;;
769;SDS011;368;48.698;9.116;2023-02-27T07:05:07;4.32;;;3.90;;
769;SDS011;368;48.698;9.116;2023-02-27T07:07:38;4.75;;;4.35;;
769;SDS011;368;48.698;9.116;2023-02-27T07:10:05;8.45;;;5.07;;
769;SDS011;368;48.698;9.116;2023-02-27T07:12:35;4.97;;;4.53;;
769;SDS011;368;48.698;9.116;2023-02-27T07:15:02;4.68;;;4.28;;
769;SDS011;368;48.698;9.116;2023-02-27T07:17:30;5.15;;;4.65;;
769;SDS011;368;48.698;9.116;2023-02-27T07:19:57;5.65;;;5.15;;
769;SDS011;368;48.698;9.116;2023-02-27T07:22:24;4.53;;;4.10;;
769;SDS011;368;48.698;9.116;2023-02-27T07:24:52;6.88;;;4.50;;
769;SDS011;368;48.698;9.116;2023-02-27T07:27:19;6.35;;;4.13;;
769;SDS011;368;48.698;9.116;2023-02-27T07:29:46;4.78;;;4.25;;
769;SDS011;368;48.698;9.116;2023-02-27T07:32:12;5.57;;;4.60;;
769;SDS011;368;48.698;9.116;2023-02-27T07:34:39;5.03;;;4.57;;
769;SDS011;368;48.698;9.116;2023-02-27T07:37:06;5.35;;;4.80;;
769;SDS011;368;48.698;9.116;2023-02-27T07:39:33;4.25;;;3.67;;
769;SDS011;368;48.698;9.116;2023-02-27T07:42:01;5.60;;;4.85;;
769;SDS011;368;48.698;9.116;2023-02-27T07:44:28;5.13;;;4.65;;
769;SDS011;368;48.698;9.116;2023-02-27T07:46:55;6.78;;;4.93;;
769;SDS011;368;48.698;9.116;2023-02-27T07:49:21;4.35;;;3.88;;
769;SDS011;368;48.698;9.116;2023-02-27T07:51:48;4.30;;;3.90;;
769;SDS011;368;48.698;9.116;2023-02-27T07:54:15;4.07;;;3.65;;
769;SDS011;368;48.698;9.116;2023-02-27T07:56:42;5.88;;;4.50;;
769;SDS011;368;48.698;9.116;2023-02-27T07:59:10;4.45;;;4.05;;
769;SDS011;368;48.698;9.116;2023-02-27T08:01:37;6.28;;;4.30;;
769;SDS011;368;48.698;9.116;2023-02-27T08:04:04;4.65;;;4.15;;
769;SDS011;368;48.698;9.116;2023-02-27T08:06:31;5.25;;;3.55;;
769;SDS011;368;48.698;9.116;2023-02-27T08:08:58;4.72;;;3.90;;
769;SDS011;368;48.698;9.116;2023-02-27T08:11:25;4.30;;;3.90;;
769;SDS011;368;48.698;9.116;2023-02-27T08:13:52;4.32;;;4.03;;
769;SDS011;368;48.698;9.116;2023-02-27T08:16:20;7.05;;;4.18;;
769;SDS011;368;48.698;9.116;2023-02-27T08:18:47;3.88;;;3.50;;
769;SDS011;368;48.698;9.116;2023-02-27T08:21:14;4.32;;;3.92;;
769;SDS011;368;48.698;9.116;2023-02-27T08:23:41;4.90;;;4.40;;
769;SDS011;368;48.698;9.116;2023-02-27T08:26:07;6.43;;;4.38;;
769;SDS011;368;48.698;9.116;2023-02-27T08:28:35;3.55;;;3.25;;
769;SDS011;368;48.698;9.116;2023-02-27T08:31:02;5.93;;;4.63;;
769;SDS011;368;48.698;9.116;2023-02-27T08:33:32;4.30;;;3.90;;
769;SDS011;368;48.698;9.116;2023-02-27T08:35:59;5.37;;;3.60;;
769;SDS011;368;48.698;9.116;2023-02-27T08:38:27;5.27;;;4.10;;
769;SDS011;368;48.698;9.116;2023-02-27T08:40:53;4.07;;;3.60;;
769;SDS011;368;48.698;9.116;2023-02-27T08:43:21;9.63;;;3.60;;
769;SDS011;368;48.698;9.116;2023-02-27T08:45:49;7.97;;;4.10;;
769;SDS011;368;48.698;9.116;2023-02-27T08:48:16;4.10;;;3.67;;
769;SDS011;368;48.698;9.116;2023-02-27T08:50:44;4.03;;;3.63;;
769;SDS011;368;48.698;9.116;2023-02-27T08:53:12;4.63;;;4.23;;
769;SDS011;368;48.698;9.116;2023-02-27T08:55:39;3.83;;;3.53;;
769;SDS011;368;48.698;9.116;2023-02-27T08:58:06;3.53;;;3.23;;
769;SDS011;368;48.698;9.116;2023-02-27T09:00:33;3.33;;;3.03;;
769;SDS011;368;48.698;9.116;2023-02-27T09:03:00;4.83;;;3.30;;
769;SDS011;368;48.698;9.116;2023-02-27T09:05:27;4.63;;;3.03;;
769;SDS011;368;48.698;9.116;2023-02-27T09:07:55;3.60;;;3.00;;
769;SDS011;368;48.698;9.116;2023-02-27T09:10:22;6.20;;;3.50;;
769;SDS011;368;48.698;9.116;2023-02-27T09:12:49;6.47;;;3.70;;
769;SDS011;368;48.698;9.116;2023-02-27T09:15:16;7.13;;;3.30;;
769;SDS011;368;48.698;9.116;2023-02-27T09:17:42;5.87;;;3.83;;
769;SDS011;368;48.698;9.116;2023-02-27T09:20:10;4.07;;;3.03;;
769;SDS011;368;48.698;9.116;2023-02-27T09:22:37;3.20;;;2.87;;
769;SDS011;368;48.698;9.116;2023-02-27T09:25:06;3.57;;;3.23;;
769;SDS011;368;48.698;9.116;2023-02-27T09:27:33;4.67;;;3.67;;
769;SDS011;368;48.698;9.116;2023-02-27T09:30:00;5.67;;;3.70;;
769;SDS011;368;48.698;9.116;2023-02-27T09:32:27;3.13;;;2.83;;
769;SDS011;368;48.698;9.116;2023-02-27T09:34:55;4.33;;;3.70;;
769;SDS011;368;48.698;9.116;2023-02-27T09:37:23;3.97;;;3.30;;
769;SDS011;368;48.698;9.116;2023-02-27T09:39:50;3.23;;;2.90;;
769;SDS011;368;48.698;9.116;2023-02-27T09:42:18;4.23;;;3.53;;
769;SDS011;368;48.698;9.116;2023-02-27T09:44:48;3.40;;;3.00;;
769;SDS011;368;48.698;9.116;2023-02-27T09:47:17;7.43;;;2.43;;
769;SDS011;368;48.698;9.116;2023-02-27T09:49:57;3.47;;;2.73;;
769;SDS011;368;48.698;9.116;2023-02-27T09:52:26;3.10;;;2.40;;
769;SDS011;368;48.698;9.116;2023-02-27T09:54:54;3.60;;;2.37;;
769;SDS011;368;48.698;9.116;2023-02-27T09:57:26;3.83;;;2.20;;
769;SDS011;368;48.698;9.116;2023-02-27T10:00:06;2.60;;;2.23;;
769;SDS011;368;48.698;9.116;2023-02-27T10:02:43;2.40;;;2.20;;
769;SDS011;368;48.698;9.116;2023-02-27T10:05:21;3.17;;;2.87;;
769;SDS011;368;48.698;9.116;2023-02-27T10:07:56;2.70;;;2.50;;
769;SDS011;368;48.698;9.116;2023-02-27T10:10:30;3.50;;;2.93;;
769;SDS011;368;48.698;9.116;2023-02-27T10:15:58;5.13;;;2.83;;
769;SDS011;368;48.698;9.116;2023-02-27T10:18:27;4.97;;;2.63;;
769;SDS011;368;48.698;9.116;2023-02-27T10:20:57;5.70;;;3.00;;
769;SDS011;368;48.698;9.116;2023-02-27T10:23:28;2.40;;;2.20;;
769;SDS011;368;48.698;9.116;2023-02-27T10:26:01;2.47;;;2.27;;
769;SDS011;368;48.698;9.116;2023-02-27T10:28:30;4.60;;;2.40;;
769;SDS011;368;48.698;9.116;2023-02-27T10:30:58;3.33;;;2.37;;
769;SDS011;368;48.698;9.116;2023-02-27T10:33:27;3.17;;;1.70;;
769;SDS011;368;48.698;9.116;2023-02-27T10:35:58;2.30;;;1.83;;
769;SDS011;368;48.698;9.116;2023-02-27T10:38:27;2.70;;;2.10;;
769;SDS011;368;48.698;9.116;2023-02-27T10:40:58;3.53;;;2.20;;
769;SDS011;368;48.698;9.116;2023-02-27T10:43:26;2.57;;;2.30;;
769;SDS011;368;48.698;9.116;2023-02-27T10:45:54;2.70;;;2.00;;
769;SDS011;368;48.698;9.116;2023-02-27T10:48:22;3.40;;;2.43;;
769;SDS011;368;48.698;9.116;2023-02-27T10:50:49;2.57;;;2.37;;
769;SDS011;368;48.698;9.116;2023-02-27T10:53:17;2.53;;;2.00;;
769;SDS011;368;48.698;9.116;2023-02-27T10:55:47;2.50;;;2.07;;
769;SDS011;368;48.698;9.116;2023-02-27T10:58:24;2.47;;;2.27;;
769;SDS011;368;48.698;9.116;2023-02-27T11:00:52;3.47;;;2.57;;
769;SDS011;368;48.698;9.116;2023-02-27T11:03:22;3.73;;;2.33;;
769;SDS011;368;48.698;9.116;2023-02-27T11:05:53;2.90;;;2.23;;
769;SDS011;368;48.698;9.116;2023-02-27T11:08:23;2.83;;;2.00;;
769;SDS011;368;48.698;9.116;2023-02-27T11:10:53;2.90;;;2.57;;
769;SDS011;368;48.698;9.116;2023-02-27T11:13:22;4.00;;;2.40;;
769;SDS011;368;48.698;9.116;2023-02-27T11:16:03;3.17;;;2.50;;
769;SDS011;368;48.698;9.116;2023-02-27T11:18:36;3.80;;;2.13;;
769;SDS011;368;48.698;9.116;2023-02-27T11:21:15;2.57;;;2.20;;
769;SDS011;368;48.698;9.116;2023-02-27T11:26:53;2.80;;;2.27;;
769;SDS011;368;48.698;9.116;2023-02-27T11:29:21;4.20;;;2.10;;
769;SDS011;368;48.698;9.116;2023-02-27T11:31:51;3.07;;;2.00;;
769;SDS011;368;48.698;9.116;2023-02-27T11:34:21;4.03;;;2.43;;
769;SDS011;368;48.698;9.116;2023-02-27T11:36:52;3.43;;;2.33;;
769;SDS011;368;48.698;9.116;2023-02-27T11:39:32;3.00;;;2.30;;
769;SDS011;368;48.698;9.116;2023-02-27T11:42:06;2.50;;;2.30;;
769;SDS011;368;48.698;9.116;2023-02-27T11:44:40;2.90;;;2.60;;
769;SDS011;368;48.698;9.116;2023-02-27T11:47:21;3.07;;;2.77;;
769;SDS011;368;48.698;9.116;2023-02-27T11:49:59;4.33;;;2.37;;
769;SDS011;368;48.698;9.116;2023-02-27T11:52:52;5.97;;;2.80;;
769;SDS011;368;48.698;9.116;2023-02-27T11:55:30;3.37;;;2.70;;
769;SDS011;368;48.698;9.116;2023-02-27T11:57:59;2.90;;;2.60;;
769;SDS011;368;48.698;9.116;2023-02-27T12:00:32;2.70;;;2.43;;
769;SDS011;368;48.698;9.116;2023-02-27T12:03:09;3.47;;;2.57;;
769;SDS011;368;48.698;9.116;2023-02-27T12:05:42;3.43;;;2.53;;
769;SDS011;368;48.698;9.116;2023-02-27T12:08:13;3.17;;;2.27;;
769;SDS011;368;48.698;9.116;2023-02-27T12:10:46;2.80;;;2.47;;
769;SDS011;368;48.698;9.116;2023-02-27T12:13:16;3.10;;;2.43;;
769;SDS011;368;48.698;9.116;2023-02-27T12:15:47;3.00;;;2.70;;
769;SDS011;368;48.698;9.116;2023-02-27T12:18:22;2.77;;;2.57;;
769;SDS011;368;48.698;9.116;2023-02-27T12:20:54;3.57;;;2.90;;
769;SDS011;368;48.698;9.116;2023-02-27T12:23:26;2.80;;;2.37;;
769;SDS011;368;48.698;9.116;2023-02-27T12:25:59;4.60;;;2.60;;
769;SDS011;368;48.698;9.116;2023-02-27T12:28:31;2.97;;;2.67;;
769;SDS011;368;48.698;9.116;2023-02-27T12:31:06;5.00;;;2.30;;
769;SDS011;368;48.698;9.116;2023-02-27T12:33:51;4.73;;;2.70;;
769;SDS011;368;48.698;9.116;2023-02-27T12:36:23;3.27;;;2.97;;
769;SDS011;368;48.698;9.116;2023-02-27T12:38:50;3.90;;;2.33;;
769;SDS011;368;48.698;9.116;2023-02-27T12:41:30;2.73;;;2.10;;
769;SDS011;368;48.698;9.116;2023-02-27T12:44:07;3.10;;;2.80;;
769;SDS011;368;48.698;9.116;2023-02-27T12:46:57;3.93;;;2.77;;
769;SDS011;368;48.698;9.116;2023-02-27T12:49:40;5.10;;;3.53;;
769;SDS011;368;48.698;9.116;2023-02-27T12:52:16;2.27;;;2.07;;
769;SDS011;368;48.698;9.116;2023-02-27T12:54:55;5.23;;;2.80;;
769;SDS011;368;48.698;9.116;2023-02-27T12:57:28;3.80;;;3.23;;
769;SDS011;368;48.698;9.116;2023-02-27T13:00:09;2.43;;;2.23;;
769;SDS011;368;48.698;9.116;2023-02-27T13:02:44;2.40;;;2.20;;
769;SDS011;368;48.698;9.116;2023-02-27T13:05:29;2.67;;;2.47;;
769;SDS011;368;48.698;9.116;2023-02-27T13:08:11;5.50;;;2.40;;
769;SDS011;368;48.698;9.116;2023-02-27T13:10:52;2.60;;;2.40;;
769;SDS011;368;48.698;9.116;2023-02-27T13:13:26;2.67;;;2.40;;
769;SDS011;368;48.698;9.116;2023-02-27T13:15:57;5.07;;;2.87;;
769;SDS011;368;48.698;9.116;2023-02-27T13:18:30;2.90;;;2.70;;
769;SDS011;368;48.698;9.116;2023-02-27T13:21:06;2.63;;;2.43;;
769;SDS011;368;48.698;9.116;2023-02-27T13:23:39;4.47;;;2.63;;
769;SDS011;368;48.698;9.116;2023-02-27T13:26:13;6.67;;;2.67;;
769;SDS011;368;48.698;9.116;2023-02-27T13:28:45;2.77;;;2.20;;
769;SDS011;368;48.698;9.116;2023-02-27T13:31:14;2.40;;;2.03;;
769;SDS011;368;48.698;9.116;2023-02-27T13:33:49;2.30;;;1.93;;
769;SDS011;368;48.698;9.116;2023-02-27T13:36:26;2.80;;;2.07;;
769;SDS011;368;48.698;9.116;2023-02-27T13:38:58;2.43;;;2.23;;
769;SDS011;368;48.698;9.116;2023-02-27T13:41:34;2.53;;;2.33;;
769;SDS011;368;48.698;9.116;2023-02-27T13:50:03;2.60;;;2.40;;
769;SDS011;368;48.698;9.116;2023-02-27T13:52:51;4.77;;;2.73;;
769;SDS011;368;48.698;9.116;2023-02-27T13:55:24;2.47;;;2.27;;
769;SDS011;368;48.698;9.116;2023-02-27T13:57:53;3.63;;;2.80;;
769;SDS011;368;48.698;9.116;2023-02-27T14:00:24;5.13;;;3.47;;
769;SDS011;368;48.698;9.116;2023-02-27T14:02:53;4.73;;;2.70;;
769;SDS011;368;48.698;9.116;2023-02-27T14:05:27;4.50;;;2.27;;
769;SDS011;368;48.698;9.116;2023-02-27T14:07:58;6.17;;;2.30;;
769;SDS011;368;48.698;9.116;2023-02-27T14:10:30;3.83;;;3.00;;
769;SDS011;368;48.698;9.116;2023-02-27T14:12:57;3.40;;;3.10;;
769;SDS011;368;48.698;9.116;2023-02-27T14:24:22;3.87;;;2.67;;
769;SDS011;368;48.698;9.116;2023-02-27T14:26:52;3.40;;;3.10;;
769;SDS011;368;48.698;9.116;2023-02-27T14:29:20;4.27;;;3.40;;
769;SDS011;368;48.698;9.116;2023-02-27T14:31:50;3.20;;;2.63;;
769;SDS011;368;48.698;9.116;2023-02-27T14:34:19;3.13;;;2.63;;
769;SDS011;368;48.698;9.116;2023-02-27T14:36:48;5.17;;;2.67;;
769;SDS011;368;48.698;9.116;2023-02-27T14:39:24;4.50;;;2.30;;
769;SDS011;368;48.698;9.116;2023-02-27T14:41:56;3.70;;;2.93;;
769;SDS011;368;48.698;9.116;2023-02-27T14:44:35;3.90;;;3.20;;
769;SDS011;368;48.698;9.116;2023-02-27T14:47:07;3.00;;;2.73;;
769;SDS011;368;48.698;9.116;2023-02-27T14:49:40;2.10;;;2.00;;
769;SDS011;368;48.698;9.116;2023-02-27T14:52:10;3.03;;;2.83;;
769;SDS011;368;48.698;9.116;2023-02-27T14:54:40;2.10;;;1.90;;
769;SDS011;368;48.698;9.116;2023-02-27T14:57:13;2.47;;;2.27;;
769;SDS011;368;48.698;9.116;2023-02-27T14:59:42;3.50;;;2.50;;
769;SDS011;368;48.698;9.116;2023-02-27T15:02:15;2.40;;;2.10;;
769;SDS011;368;48.698;9.116;2023-02-27T15:04:46;3.93;;;2.20;;
769;SDS011;368;48.698;9.116;2023-02-27T15:07:15;3.90;;;2.47;;
769;SDS011;368;48.698;9.116;2023-02-27T15:09:50;5.97;;;2.43;;
769;SDS011;368;48.698;9.116;2023-02-27T15:12:20;3.10;;;2.67;;
769;SDS011;368;48.698;9.116;2023-02-27T15:14:49;5.20;;;2.57;;
769;SDS011;368;48.698;9.116;2023-02-27T15:17:18;2.83;;;2.60;;
769;SDS011;368;48.698;9.116;2023-02-27T15:19:47;2.30;;;2.10;;
769;SDS011;368;48.698;9.116;2023-02-27T15:22:16;4.03;;;2.67;;
769;SDS011;368;48.698;9.116;2023-02-27T15:24:44;2.57;;;2.10;;
769;SDS011;368;48.698;9.116;2023-02-27T15:27:15;3.30;;;2.33;;
769;SDS011;368;48.698;9.116;2023-02-27T15:29:47;2.60;;;2.37;;
769;SDS011;368;48.698;9.116;2023-02-27T15:32:15;2.00;;;1.90;;
769;SDS011;368;48.698;9.116;2023-02-27T15:34:46;4.17;;;2.57;;
769;SDS011;368;48.698;9.116;2023-02-27T15:37:15;2.90;;;2.30;;
769;SDS011;368;48.698;9.116;2023-02-27T15:39:46;2.77;;;2.40;;
769;SDS011;368;48.698;9.116;2023-02-27T15:42:14;3.20;;;2.80;;
769;SDS011;368;48.698;9.116;2023-02-27T15:44:42;3.47;;;2.30;;
769;SDS011;368;48.698;9.116;2023-02-27T15:47:11;2.37;;;2.10;;
769;SDS011;368;48.698;9.116;2023-02-27T15:49:41;2.73;;;2.53;;
769;SDS011;368;48.698;9.116;2023-02-27T15:52:11;2.43;;;2.20;;
769;SDS011;368;48.698;9.116;2023-02-27T15:54:43;3.03;;;2.73;;
769;SDS011;368;48.698;9.116;2023-02-27T15:57:13;2.17;;;1.97;;
769;SDS011;368;48.698;9.116;2023-02-27T15:59:41;3.40;;;2.60;;
769;SDS011;368;48.698;9.116;2023-02-27T16:02:12;2.67;;;2.17;;
769;SDS011;368;48.698;9.116;2023-02-27T16:04:43;3.17;;;2.10;;
769;SDS011;368;48.698;9.116;2023-02-27T16:07:13;2.57;;;2.10;;
769;SDS011;368;48.698;9.116;2023-02-27T16:09:46;3.20;;;2.90;;
769;SDS011;368;48.698;9.116;2023-02-27T16:12:27;3.00;;;2.80;;
769;SDS011;368;48.698;9.116;2023-02-27T16:15:16;4.00;;;2.70;;
769;SDS011;368;48.698;9.116;2023-02-27T16:17:53;4.80;;;2.67;;
769;SDS011;368;48.698;9.116;2023-02-27T16:20:35;3.27;;;2.30;;
769;SDS011;368;48.698;9.116;2023-02-27T16:23:05;3.77;;;2.40;;
769;SDS011;368;48.698;9.116;2023-02-27T16:25:40;3.17;;;2.40;;
769;SDS011;368;48.698;9.116;2023-02-27T16:28:12;3.93;;;2.80;;
769;SDS011;368;48.698;9.116;2023-02-27T16:30:39;3.10;;;2.67;;
769;SDS011;368;48.698;9.116;2023-02-27T16:33:09;2.70;;;2.50;;
769;SDS011;368;48.698;9.116;2023-02-27T16:35:44;2.80;;;2.40;;
769;SDS011;368;48.698;9.116;2023-02-27T16:38:11;2.80;;;2.53;;
769;SDS011;368;48.698;9.116;2023-02-27T16:40:38;3.03;;;2.40;;
769;SDS011;368;48.698;9.116;2023-02-27T16:43:05;3.00;;;2.50;;
769;SDS011;368;48.698;9.116;2023-02-27T16:45:33;3.03;;;2.33;;